logo
Rechercher aéroport 
image banner adimage banner adimage banner ad
image banner ad

HKUR - Kulalu Ranch

Situé à , Kenya

ICAO - , IATA -

Données fournies par Airmate  

Information générale

Coordonnées: S3°5'0" E39°24'60"
Élévation : 394 feet MSL.
 
Voir autres Aéroports à Coast Province

Données opérationnelles

Special qualification required
Heure actuelle UTC:
Heure actuelle locale:
Météo à : HKML - Malindi ( 77 km )
METAR: HKML 290900Z 20015G25KT 9999 FEW024 30/21 Q1015
Voir NOTAMs / SUP AIP / TFR affectant cet aéroport [VIEW]
Fréquences de communication: [VIEW]

Pistes:

Identifiant RWYQFULongueur (ft)Largeur (ft)SurfaceLDA (ft)
1500UNK
3300UNK

Coordonnées de l'aéroport

Adresse: Kenya

Vue satellite de HKUR